Time;durP1;ratioP1;P1;durP2;ratioP2;P2;SDS_P1;SDS_P2;PMS_P1;PMS_P2;Temp;Humidity;BMP_temperature;BMP_pressure;BME280_temperature;BME280_humidity;BME280_pressure;Samples;Min_cycle;Max_cycle;Signal;HPM_P1;HPM_P2
2022/10/01 00:00:53;;;;;;;9.70;6.43;;;;;;;15.67;100.00;100258.56;5052921;28;20040;-68
2022/10/01 00:03:20;;;;;;;8.10;6.72;;;;;;;15.67;100.00;100258.56;5051030;28;20033;-65
2022/10/01 00:05:46;;;;;;;7.85;5.82;;;;;;;15.67;100.00;100244.19;5047496;28;20061;-65
2022/10/01 00:08:15;;;;;;;8.27;5.65;;;;;;;15.64;100.00;100239.97;5047049;28;20063;-65
2022/10/01 00:10:42;;;;;;;7.50;6.28;;;;;;;15.64;100.00;100236.44;5049445;28;20047;-65
2022/10/01 00:13:08;;;;;;;5.53;5.03;;;;;;;15.62;100.00;100238.44;5047696;28;20036;-65
2022/10/01 00:15:34;;;;;;;8.05;6.10;;;;;;;15.59;100.00;100238.78;5057531;28;20033;-66
2022/10/01 00:18:00;;;;;;;7.53;6.32;;;;;;;15.50;100.00;100227.13;5051572;28;20017;-65
2022/10/01 00:20:26;;;;;;;7.55;6.35;;;;;;;15.57;100.00;100235.41;5060963;28;20037;-66
2022/10/01 00:22:52;;;;;;;7.72;6.13;;;;;;;15.57;100.00;100238.09;5047388;28;20033;-65
2022/10/01 00:25:18;;;;;;;7.43;6.30;;;;;;;15.56;100.00;100236.41;5051646;28;20041;-66
2022/10/01 00:27:46;;;;;;;7.15;6.10;;;;;;;15.59;100.00;100234.25;5047106;28;20025;-65
2022/10/01 00:30:11;;;;;;;9.63;5.75;;;;;;;15.56;100.00;100226.47;5047540;28;20036;-65
2022/10/01 00:32:40;;;;;;;6.05;5.22;;;;;;;15.60;100.00;100218.84;5046795;28;20224;-65
2022/10/01 00:35:08;;;;;;;7.30;5.40;;;;;;;15.59;100.00;100222.56;5047189;28;20055;-65
2022/10/01 00:37:36;;;;;;;6.10;5.00;;;;;;;15.60;100.00;100218.84;5061895;28;20036;-72
2022/10/01 00:40:04;;;;;;;7.32;4.60;;;;;;;15.60;100.00;100217.00;5058963;28;20087;-72
2022/10/01 00:42:31;;;;;;;6.07;4.53;;;;;;;15.57;100.00;100217.31;5056017;28;20029;-72
2022/10/01 00:44:57;;;;;;;4.55;4.15;;;;;;;15.63;100.00;100213.94;5062020;28;20134;-72
2022/10/01 00:47:35;;;;;;;5.25;4.10;;;;;;;15.63;100.00;100211.25;5063369;28;20432;-71
2022/10/01 00:50:11;;;;;;;5.57;4.90;;;;;;;15.64;100.00;100212.94;5063428;28;20035;-72
2022/10/01 00:52:39;;;;;;;5.05;4.57;;;;;;;15.64;100.00;100214.81;5064558;28;20085;-72
2022/10/01 00:55:33;;;;;;;5.35;4.60;;;;;;;15.66;100.00;100197.38;5064283;28;20033;-72
2022/10/01 00:57:59;;;;;;;8.27;4.22;;;;;;;15.74;100.00;100205.47;5059703;28;20044;-74
2022/10/01 01:00:25;;;;;;;5.50;4.68;;;;;;;15.70;100.00;100212.25;5053671;28;20036;-74
2022/10/01 01:02:50;;;;;;;6.30;4.55;;;;;;;15.66;100.00;100189.28;5068721;28;20122;-74
2022/10/01 01:05:16;;;;;;;3.78;3.35;;;;;;;15.73;100.00;100201.09;5059769;28;20066;-74
2022/10/01 01:07:45;;;;;;;5.50;3.90;;;;;;;15.74;100.00;100191.13;5065340;28;20044;-72
2022/10/01 01:10:15;;;;;;;3.70;3.40;;;;;;;15.75;100.00;100199.09;5060893;28;20029;-71
2022/10/01 01:12:57;;;;;;;4.85;3.17;;;;;;;15.78;100.00;100197.88;5058760;28;20040;-72
2022/10/01 01:15:46;;;;;;;4.38;3.55;;;;;;;15.79;100.00;100194.16;5060221;28;19931;-71
2022/10/01 01:18:53;;;;;;;3.90;3.10;;;;;;;15.79;100.00;100189.59;5052230;28;20017;-74
2022/10/01 01:21:41;;;;;;;3.65;3.20;;;;;;;15.66;100.00;100154.13;5014165;28;20069;-74
2022/10/01 01:24:51;;;;;;;6.07;3.55;;;;;;;15.80;100.00;100174.19;5012807;28;20112;-74
2022/10/01 01:27:28;;;;;;;4.35;2.85;;;;;;;15.80;100.00;100169.66;5054577;28;20139;-74
2022/10/01 01:29:56;;;;;;;3.50;3.00;;;;;;;15.80;100.00;100174.19;5062666;28;20111;-74
2022/10/01 01:32:29;;;;;;;5.63;3.28;;;;;;;15.83;100.00;100173.84;5056490;28;20040;-74
2022/10/01 01:34:59;;;;;;;3.90;3.20;;;;;;;15.80;100.00;100185.00;5061078;28;20149;-74
2022/10/01 01:37:30;;;;;;;4.35;3.20;;;;;;;15.85;100.00;100197.03;5066301;28;20024;-74
2022/10/01 01:39:58;;;;;;;4.35;3.22;;;;;;;15.75;100.00;100165.78;5053200;28;20025;-74
2022/10/01 01:42:30;;;;;;;5.70;3.38;;;;;;;15.75;100.00;100161.22;5059632;28;20024;-75
2022/10/01 01:44:59;;;;;;;3.55;2.90;;;;;;;15.84;100.00;100162.88;5056988;28;20045;-75
2022/10/01 01:47:28;;;;;;;4.47;3.15;;;;;;;15.83;100.00;100155.78;5056283;28;20124;-74
2022/10/01 01:49:54;;;;;;;3.50;3.10;;;;;;;15.81;100.00;100163.22;5056805;28;20029;-74
2022/10/01 01:52:19;;;;;;;3.58;3.17;;;;;;;15.74;100.00;100164.91;5056470;28;20640;-74
2022/10/01 01:54:47;;;;;;;5.22;3.17;;;;;;;15.74;100.00;100173.03;5058527;28;20028;-74
2022/10/01 01:57:14;;;;;;;4.13;3.38;;;;;;;15.75;100.00;100177.44;5057636;28;20040;-72
2022/10/01 01:59:40;;;;;;;7.07;3.80;;;;;;;15.78;100.00;100187.91;5060790;28;20052;-72
2022/10/01 02:02:10;;;;;;;4.10;3.70;;;;;;;15.69;100.00;100178.13;5055892;28;20036;-72
2022/10/01 02:04:43;;;;;;;7.30;3.67;;;;;;;15.76;100.00;100194.50;5062670;28;20054;-72
2022/10/01 02:07:27;;;;;;;4.85;4.13;;;;;;;15.75;100.00;100190.97;5060704;28;20051;-72
2022/10/01 02:10:22;;;;;;;4.63;3.55;;;;;;;15.72;100.00;100191.31;5059242;28;20428;-72
2022/10/01 02:12:53;;;;;;;;;;;;;;;15.69;100.00;100191.66;5057795;28;20501;-72
2022/10/01 02:15:41;;;;;;;4.88;3.67;;;;;;;15.70;100.00;100185.22;5055616;28;20356;-72
2022/10/01 02:18:21;;;;;;;3.65;3.35;;;;;;;15.65;100.00;100184.91;5060271;28;20042;-72
2022/10/01 02:21:22;;;;;;;4.30;3.90;;;;;;;15.70;100.00;100203.28;5055551;28;20075;-74
2022/10/01 02:24:21;;;;;;;9.07;4.68;;;;;;;15.59;100.00;100188.28;5037001;28;20033;-74
2022/10/01 02:26:49;;;;;;;4.00;3.60;;;;;;;15.65;100.00;100192.16;5049129;28;20068;-74
2022/10/01 02:29:18;;;;;;;4.20;3.80;;;;;;;15.65;100.00;100202.97;5061154;28;20032;-74
2022/10/01 02:31:47;;;;;;;5.30;4.00;;;;;;;15.61;100.00;100210.56;5063630;28;20407;-74
2022/10/01 02:34:14;;;;;;;6.25;4.47;;;;;;;15.65;100.00;100219.19;5060340;28;20060;-74
2022/10/01 02:36:44;;;;;;;5.53;4.25;;;;;;;15.63;100.00;100213.09;5055130;28;20032;-74
2022/10/01 02:39:12;;;;;;;4.78;4.38;;;;;;;15.51;100.00;100187.44;5058387;28;20028;-68
2022/10/01 02:41:38;;;;;;;6.38;4.97;;;;;;;15.53;100.00;100183.53;5049443;28;20041;-68
2022/10/01 02:44:12;;;;;;;4.90;4.28;;;;;;;15.65;100.00;100202.97;5053824;28;20028;-67
2022/10/01 02:46:43;;;;;;;;;;;;;;;15.65;100.00;100198.41;5049578;28;20057;-67
2022/10/01 02:49:10;;;;;;;5.18;4.68;;;;;;;15.54;100.00;100185.22;5057041;28;19940;-68
2022/10/01 02:51:52;;;;;;;5.55;4.95;;;;;;;15.53;100.00;100183.53;5061704;28;20897;-67
2022/10/01 02:54:30;;;;;;;5.65;5.05;;;;;;;15.64;100.00;100199.41;5050104;28;20535;-73
2022/10/01 02:59:41;;;;;;;7.28;5.80;;;;;;;15.53;100.00;100182.69;5058681;28;20411;-74
2022/10/01 03:02:06;;;;;;;7.60;5.85;;;;;;;15.60;100.00;100191.81;5055154;28;20045;-74
2022/10/01 03:04:32;;;;;;;6.65;5.93;;;;;;;15.60;100.00;100183.69;5061977;28;20029;-74
2022/10/01 03:07:02;;;;;;;6.43;5.80;;;;;;;15.63;100.00;100197.72;5058682;28;20052;-74
2022/10/01 03:09:33;;;;;;;6.20;5.60;;;;;;;15.61;100.00;100205.16;5058798;28;20430;-74
2022/10/01 03:12:00;;;;;;;6.68;6.07;;;;;;;15.64;100.00;100210.22;5049029;28;20031;-67
2022/10/01 03:14:27;;;;;;;7.05;6.35;;;;;;;15.53;100.00;100198.91;5048531;28;20110;-68
2022/10/01 03:16:53;;;;;;;8.40;6.55;;;;;;;15.56;100.00;100209.38;5058095;28;20356;-67
2022/10/01 03:19:20;;;;;;;6.78;6.07;;;;;;;15.63;100.00;100223.91;5058451;28;20044;-67
2022/10/01 03:21:46;;;;;;;6.78;5.93;;;;;;;15.59;100.00;100218.00;5053844;28;20029;-68
2022/10/01 03:24:11;;;;;;;7.45;5.85;;;;;;;15.56;100.00;100215.66;5058067;28;20031;-68
2022/10/01 03:26:37;;;;;;;7.68;6.10;;;;;;;15.62;100.00;100227.63;5048359;28;20352;-67
2022/10/01 03:29:03;;;;;;;6.78;6.07;;;;;;;15.61;100.00;100236.78;5048413;28;20024;-68
2022/10/01 03:31:29;;;;;;;6.65;5.85;;;;;;;15.58;100.00;100223.59;5053827;28;20491;-67
2022/10/01 03:33:56;;;;;;;6.95;6.20;;;;;;;15.61;100.00;100228.66;5059780;28;20051;-67
2022/10/01 03:36:22;;;;;;;6.57;5.95;;;;;;;15.62;100.00;100220.38;5052151;28;20033;-68
2022/10/01 03:38:47;;;;;;;6.20;5.65;;;;;;;15.65;100.00;100230.88;5055708;28;20133;-68
2022/10/01 03:41:13;;;;;;;7.63;6.90;;;;;;;15.63;100.00;100221.19;5048206;28;20036;-68
2022/10/01 03:43:38;;;;;;;7.38;6.68;;;;;;;15.57;100.00;100211.91;5050028;28;20116;-67
2022/10/01 03:46:04;;;;;;;8.98;6.28;;;;;;;15.61;100.00;100212.44;5048132;28;20472;-67
2022/10/01 03:48:29;;;;;;;7.55;6.60;;;;;;;15.46;100.00;100206.00;5057727;28;20068;-68
2022/10/01 03:50:57;;;;;;;7.18;6.47;;;;;;;15.60;100.00;100222.41;5047892;28;20507;-68
2022/10/01 03:53:23;;;;;;;7.13;6.43;;;;;;;15.50;100.00;100200.09;5054676;28;20036;-68
2022/10/01 03:55:49;;;;;;;9.90;6.15;;;;;;;15.62;100.00;100230.34;5048703;28;20128;-68
2022/10/01 03:58:16;;;;;;;9.10;6.50;;;;;;;15.57;100.00;100232.69;5050285;28;20031;-68
2022/10/01 04:00:43;;;;;;;8.10;6.53;;;;;;;15.60;100.00;100237.75;5051822;28;20048;-72
2022/10/01 04:03:08;;;;;;;7.97;7.18;;;;;;;15.56;100.00;100225.59;5059809;28;20038;-71
2022/10/01 04:05:33;;;;;;;7.43;6.72;;;;;;;15.53;100.00;100225.94;5061117;28;20025;-72
2022/10/01 04:07:59;;;;;;;7.78;6.72;;;;;;;15.54;100.00;100222.22;5060985;28;20017;-72
2022/10/01 04:10:25;;;;;;;8.73;6.60;;;;;;;15.44;100.00;100211.56;5057144;28;20586;-72
2022/10/01 04:12:50;;;;;;;7.47;6.70;;;;;;;15.48;100.00;100214.81;5051045;28;20033;-71
2022/10/01 04:15:16;;;;;;;8.95;7.70;;;;;;;15.52;100.00;100213.44;5058687;28;20029;-72
2022/10/01 04:17:41;;;;;;;8.18;7.10;;;;;;;15.52;100.00;100205.34;5056253;28;20028;-72
2022/10/01 04:20:07;;;;;;;9.00;7.82;;;;;;;15.53;100.00;100209.72;5054707;28;20033;-72
2022/10/01 04:22:40;;;;;;;8.70;6.68;;;;;;;15.54;100.00;100223.06;5053414;28;20033;-74
2022/10/01 04:25:09;;;;;;;7.60;6.57;;;;;;;15.54;100.00;100222.22;5060696;28;20467;-72
2022/10/01 04:27:35;;;;;;;7.60;6.32;;;;;;;15.54;100.00;100225.78;5051991;28;20062;-72
2022/10/01 04:30:01;;;;;;;7.78;6.25;;;;;;;15.45;100.00;100217.84;5054820;28;20029;-72
2022/10/01 04:32:26;;;;;;;6.68;6.07;;;;;;;15.40;100.00;100215.63;5064580;28;20028;-72
2022/10/01 04:34:52;;;;;;;6.82;6.20;;;;;;;15.51;100.00;100228.81;5056860;28;20792;-72
2022/10/01 04:37:19;;;;;;;8.25;6.75;;;;;;;15.33;100.00;100198.38;5059551;28;20043;-72
2022/10/01 04:39:44;;;;;;;8.13;6.82;;;;;;;15.47;100.00;100235.56;5057210;28;20514;-72
2022/10/01 04:42:12;;;;;;;7.43;5.97;;;;;;;15.48;100.00;100249.94;5055994;28;20029;-72
2022/10/01 04:44:37;;;;;;;7.30;6.40;;;;;;;15.45;100.00;100255.69;5054859;28;20016;-72
2022/10/01 04:47:03;;;;;;;7.60;6.80;;;;;;;15.45;100.00;100252.97;5062246;28;20071;-71
2022/10/01 04:49:28;;;;;;;7.07;5.70;;;;;;;15.42;100.00;100261.41;5053296;28;20039;-72
2022/10/01 04:51:54;;;;;;;11.30;6.22;;;;;;;15.40;100.00;100253.47;5057458;28;20037;-66
2022/10/01 04:54:19;;;;;;;7.85;7.05;;;;;;;15.39;100.00;100249.09;5047908;28;20033;-65
2022/10/01 04:56:45;;;;;;;9.95;7.30;;;;;;;15.40;100.00;100263.44;5049310;28;20214;-72
2022/10/01 04:59:10;;;;;;;7.25;6.32;;;;;;;15.38;100.00;100260.91;5056230;28;20028;-72
2022/10/01 05:01:35;;;;;;;8.07;6.13;;;;;;;15.30;100.00;100252.75;5062307;28;20058;-72
2022/10/01 05:04:01;;;;;;;8.05;6.10;;;;;;;15.36;100.00;100257.53;5057834;28;20865;-72
2022/10/01 05:06:26;;;;;;;9.88;8.05;;;;;;;15.35;100.00;100258.47;5064060;28;20074;-72
2022/10/01 05:08:52;;;;;;;17.63;11.45;;;;;;;15.28;100.00;100243.97;5057472;28;20021;-72
2022/10/01 05:11:17;;;;;;;20.08;13.07;;;;;;;15.37;100.00;100259.22;5058927;28;20501;-72
2022/10/01 05:13:43;;;;;;;19.42;13.65;;;;;;;15.33;100.00;100246.16;5057515;28;20025;-72
2022/10/01 05:16:10;;;;;;;16.27;12.18;;;;;;;15.38;100.00;100244.69;5054831;28;20025;-72
2022/10/01 05:18:35;;;;;;;13.38;9.98;;;;;;;15.40;100.00;100258.88;5058749;28;20066;-72
2022/10/01 05:21:06;;;;;;;10.40;9.30;;;;;;;15.38;100.00;100265.47;5060491;28;20036;-72
2022/10/01 05:23:32;;;;;;;9.25;8.25;;;;;;;15.33;100.00;100260.53;5056888;28;20032;-72
2022/10/01 05:25:57;;;;;;;8.52;7.47;;;;;;;15.31;100.00;100258.97;5062324;28;20467;-72
2022/10/01 05:28:23;;;;;;;10.02;8.15;;;;;;;15.37;100.00;100264.63;5060793;28;20028;-66
2022/10/01 05:30:49;;;;;;;7.97;7.20;;;;;;;15.38;100.00;100263.59;5046785;28;20083;-66
2022/10/01 05:33:15;;;;;;;8.30;7.22;;;;;;;15.42;100.00;100267.66;5049647;28;20045;-66
2022/10/01 05:35:40;;;;;;;8.52;7.32;;;;;;;15.36;100.00;100244.00;5052958;28;20075;-66
2022/10/01 05:38:06;;;;;;;9.13;8.20;;;;;;;15.38;100.00;100243.84;5050505;28;20059;-66
2022/10/01 05:40:32;;;;;;;9.15;7.55;;;;;;;15.45;100.00;100247.56;5048989;28;20040;-66
2022/10/01 05:42:59;;;;;;;9.85;8.85;;;;;;;15.35;100.00;100228.75;5052791;28;20033;-66
2022/10/01 05:45:28;;;;;;;8.98;8.05;;;;;;;15.36;100.00;100226.91;5050255;28;20027;-66
2022/10/01 05:47:57;;;;;;;11.63;9.63;;;;;;;15.51;100.00;100250.44;5053650;28;20472;-66
2022/10/01 05:50:24;;;;;;;12.88;9.77;;;;;;;15.51;100.00;100263.13;5064720;28;20032;-66
2022/10/01 05:52:51;;;;;;;13.70;9.05;;;;;;;15.42;100.00;100250.59;5047402;28;20060;-66
2022/10/01 05:55:18;;;;;;;13.15;10.65;;;;;;;15.36;100.00;100241.31;5051451;28;20029;-66
2022/10/01 05:57:43;;;;;;;11.23;10.10;;;;;;;15.52;100.00;100271.06;5050081;28;20487;-66
2022/10/01 06:00:11;;;;;;;12.98;10.95;;;;;;;15.53;100.00;100277.31;5048666;28;20024;-65
2022/10/01 06:02:37;;;;;;;14.32;12.82;;;;;;;15.24;100.00;100236.34;5048727;28;20029;-66
2022/10/01 06:05:02;;;;;;;12.82;11.45;;;;;;;15.53;100.00;100283.56;5058073;28;20086;-66
2022/10/01 06:07:30;;;;;;;13.40;12.00;;;;;;;15.48;100.00;100272.38;5060765;28;20032;-66
2022/10/01 06:09:56;;;;;;;12.77;10.82;;;;;;;15.58;100.00;100278.47;5051025;28;20142;-65
2022/10/01 06:12:22;;;;;;;12.88;11.57;;;;;;;15.57;100.00;100271.41;5048908;28;20052;-66
2022/10/01 06:14:47;;;;;;;14.13;12.43;;;;;;;15.51;100.00;100260.41;5057865;28;20068;-67
2022/10/01 06:17:13;;;;;;;12.82;11.52;;;;;;;15.63;100.00;100269.88;5058999;28;20120;-66
2022/10/01 06:19:38;;;;;;;16.15;13.25;;;;;;;15.62;100.00;100266.34;5051086;28;20088;-66
2022/10/01 06:22:04;;;;;;;14.75;13.25;;;;;;;15.53;100.00;100261.09;5052908;28;20055;-66
2022/10/01 06:24:30;;;;;;;14.93;13.30;;;;;;;15.44;100.00;100243.16;5049851;28;20487;-66
2022/10/01 06:26:56;;;;;;;15.10;12.75;;;;;;;15.45;100.00;100253.81;5049978;28;20032;-66
2022/10/01 06:29:22;;;;;;;13.82;12.18;;;;;;;15.66;100.00;100281.22;5062439;28;20596;-66
2022/10/01 06:31:47;;;;;;;14.48;12.98;;;;;;;15.51;100.00;100260.41;5067264;28;20066;-66
2022/10/01 06:34:12;;;;;;;15.02;13.45;;;;;;;15.60;100.00;100262.94;5053292;28;20411;-66
2022/10/01 06:36:38;;;;;;;18.30;14.82;;;;;;;15.62;100.00;100258.22;5058815;28;20036;-66
2022/10/01 06:39:03;;;;;;;17.13;15.32;;;;;;;15.60;100.00;100257.53;5061045;28;20035;-66
2022/10/01 06:41:29;;;;;;;18.92;14.07;;;;;;;15.67;100.00;100268.50;5055790;28;20029;-66
2022/10/01 06:43:54;;;;;;;15.70;13.50;;;;;;;15.70;100.00;100269.03;5053597;28;20021;-66
2022/10/01 06:46:19;;;;;;;16.20;13.07;;;;;;;15.69;100.00;100252.97;5048354;28;20475;-66
2022/10/01 06:48:45;;;;;;;14.77;13.18;;;;;;;15.72;100.00;100269.72;5048978;28;20298;-66
2022/10/01 06:51:10;;;;;;;16.38;13.98;;;;;;;15.75;100.00;100280.22;5047523;28;20513;-67
2022/10/01 06:53:36;;;;;;;14.48;12.27;;;;;;;15.77;100.00;100286.28;5054157;28;20036;-66
2022/10/01 06:56:06;;;;;;;14.27;12.88;;;;;;;15.79;100.00;100300.47;5057010;28;20058;-66
2022/10/01 06:58:31;;;;;;;18.15;13.35;;;;;;;15.83;100.00;100311.78;5047651;28;20064;-67
2022/10/01 07:01:00;;;;;;;16.17;13.57;;;;;;;15.78;100.00;100303.34;5050759;28;20063;-67
2022/10/01 07:03:26;;;;;;;16.52;14.52;;;;;;;15.86;100.00;100311.47;5051432;28;20103;-66
2022/10/01 07:05:51;;;;;;;16.20;14.43;;;;;;;15.77;100.00;100282.75;5053937;28;20090;-67
2022/10/01 07:08:17;;;;;;;14.63;13.20;;;;;;;15.86;100.00;100292.53;5050526;28;20042;-66
2022/10/01 07:10:44;;;;;;;15.95;14.25;;;;;;;15.86;100.00;100292.53;5048515;28;20476;-66
2022/10/01 07:13:12;;;;;;;14.75;13.25;;;;;;;15.86;100.00;100281.72;5049010;28;20024;-67
2022/10/01 07:15:38;;;;;;;14.32;13.02;;;;;;;15.88;100.00;100283.25;5051420;28;20028;-66
2022/10/01 07:18:05;;;;;;;16.08;14.27;;;;;;;15.96;100.00;100304.03;5061849;28;20303;-66
2022/10/01 07:20:34;;;;;;;17.80;14.27;;;;;;;15.82;100.00;100286.63;5054010;28;20029;-73
2022/10/01 07:23:00;;;;;;;17.05;14.07;;;;;;;15.87;100.00;100294.25;5059096;28;20028;-73
2022/10/01 07:25:25;;;;;;;15.73;13.82;;;;;;;15.83;100.00;100288.31;5057395;28;20039;-73
2022/10/01 07:27:56;;;;;;;16.33;14.63;;;;;;;15.91;100.00;100303.69;5062976;28;20028;-73
2022/10/01 07:30:22;;;;;;;15.73;14.13;;;;;;;15.91;100.00;100298.28;5058574;28;20024;-73
2022/10/01 07:32:48;;;;;;;16.73;14.40;;;;;;;15.92;100.00;100285.63;5049810;28;20124;-73
2022/10/01 07:35:13;;;;;;;16.27;14.40;;;;;;;15.79;100.00;100268.03;5043478;28;20032;-72
2022/10/01 07:37:39;;;;;;;16.13;14.13;;;;;;;15.94;100.00;100298.78;5050160;28;20091;-73
2022/10/01 07:40:05;;;;;;;16.17;14.57;;;;;;;15.94;100.00;100285.25;5057990;28;20028;-73
2022/10/01 07:42:30;;;;;;;17.92;15.43;;;;;;;15.92;100.00;100289.16;5057086;28;20033;-73
2022/10/01 07:44:55;;;;;;;22.27;18.40;;;;;;;15.96;100.00;100276.16;5054031;28;20031;-73
2022/10/01 07:47:21;;;;;;;25.83;21.25;;;;;;;15.93;100.00;100268.38;5059906;28;20127;-73
2022/10/01 07:49:47;;;;;;;24.00;19.83;;;;;;;15.98;100.00;100264.13;5057415;28;20437;-73
2022/10/01 07:52:12;;;;;;;24.85;20.58;;;;;;;15.92;100.00;100253.16;5062580;28;20033;-74
2022/10/01 07:54:37;;;;;;;22.60;19.02;;;;;;;15.99;100.00;100263.09;5058541;28;20069;-72
2022/10/01 07:57:03;;;;;;;20.55;16.60;;;;;;;16.01;100.00;100262.94;5054775;28;20635;-75
2022/10/01 07:59:30;;;;;;;17.52;15.73;;;;;;;15.98;100.00;100253.31;5055282;28;20111;-73
2022/10/01 08:01:55;;;;;;;18.83;16.40;;;;;;;16.06;100.00;100255.16;5054154;28;20020;-73
2022/10/01 08:07:06;;;;;;;18.50;16.40;;;;;;;16.00;100.00;100245.88;5049697;28;20421;-74
2022/10/01 08:09:32;;;;;;;18.60;14.90;;;;;;;16.10;100.00;100249.25;5057941;28;20029;-74
2022/10/01 08:11:57;;;;;;;19.35;16.30;;;;;;;16.02;100.00;100227.59;5053676;28;20039;-74
2022/10/01 08:14:23;;;;;;;19.42;15.85;;;;;;;16.12;100.00;100228.25;5050957;28;20026;-74
2022/10/01 08:16:48;;;;;;;17.15;15.45;;;;;;;16.12;100.00;100228.25;5051312;28;20056;-73
2022/10/01 08:19:14;;;;;;;15.63;13.40;;;;;;;16.17;100.00;100231.28;5058948;28;20036;-74
2022/10/01 08:21:41;;;;;;;15.88;13.20;;;;;;;16.19;100.00;100225.72;5053373;28;20032;-74
2022/10/01 08:24:07;;;;;;;12.90;11.00;;;;;;;16.19;100.00;100223.88;5051253;28;20073;-74
2022/10/01 08:26:33;;;;;;;11.75;10.50;;;;;;;16.23;100.00;100227.91;5054893;28;20039;-74
2022/10/01 08:28:59;;;;;;;13.70;10.70;;;;;;;16.32;100.00;100244.97;5057673;28;20024;-74
2022/10/01 08:31:25;;;;;;;10.43;9.32;;;;;;;16.32;100.00;100231.44;5057236;28;20503;-73
2022/10/01 08:33:51;;;;;;;11.20;9.20;;;;;;;16.38;100.00;100228.84;5044306;28;20052;-68
2022/10/01 08:36:17;;;;;;;9.63;8.38;;;;;;;16.37;100.00;100229.88;5047777;28;20047;-68
2022/10/01 08:38:47;;;;;;;9.40;6.75;;;;;;;16.50;100.00;100227.50;5046477;28;20399;-68
2022/10/01 08:41:51;;;;;;;11.05;6.70;;;;;;;16.54;100.00;100228.84;5046434;28;20487;-67
2022/10/01 08:44:27;;;;;;;6.75;5.43;;;;;;;16.54;100.00;100223.44;5047538;28;20029;-67
2022/10/01 08:46:56;;;;;;;7.07;6.38;;;;;;;16.55;100.00;100216.16;5046981;28;20028;-68
2022/10/01 08:49:27;;;;;;;8.25;6.07;;;;;;;16.62;100.00;100238.81;5046946;28;20083;-67
2022/10/01 08:52:09;;;;;;;8.50;5.97;;;;;;;16.54;100.00;100218.00;5046753;28;20045;-68
2022/10/01 08:54:42;;;;;;;8.00;6.53;;;;;;;16.64;100.00;100223.22;5054383;28;20079;-67
2022/10/01 08:57:15;;;;;;;9.05;7.57;;;;;;;16.72;100.00;100218.63;5045612;28;20392;-67
2022/10/01 08:59:55;;;;;;;9.37;8.43;;;;;;;16.76;100.00;100217.25;5055271;28;20521;-68
2022/10/01 09:02:36;;;;;;;10.82;9.00;;;;;;;16.79;100.00;100222.31;5052539;28;20428;-68
2022/10/01 09:05:05;;;;;;;12.60;9.63;;;;;;;16.83;100.00;100223.63;5051930;28;20024;-68
2022/10/01 09:07:49;;;;;;;11.90;8.70;;;;;;;16.88;100.00;100213.13;5051406;28;20028;-68
2022/10/01 09:10:20;;;;;;;12.35;9.75;;;;;;;16.89;100.00;100200.41;5050967;28;20044;-68
2022/10/01 09:13:16;;;;;;;11.85;10.57;;;;;;;16.82;100.00;100181.31;5061032;28;20527;-68
2022/10/01 09:15:53;;;;;;;11.85;10.57;;;;;;;16.88;100.00;100185.19;5050155;28;20033;-67
2022/10/01 09:18:40;;;;;;;14.30;11.18;;;;;;;16.94;100.00;100184.47;5051605;28;20499;-68
2022/10/01 09:21:21;;;;;;;16.38;13.60;;;;;;;16.92;100.00;100162.13;5060602;28;20098;-67
2022/10/01 09:24:02;;;;;;;16.83;15.02;;;;;;;17.01;100.00;100186.28;5049647;28;20049;-68
2022/10/01 09:26:27;;;;;;;16.73;14.85;;;;;;;16.91;100.00;100169.44;5049309;28;20025;-68
2022/10/01 09:28:54;;;;;;;15.63;13.50;;;;;;;16.93;100.00;100161.94;5052900;28;20457;-68
2022/10/01 09:31:26;;;;;;;14.70;12.25;;;;;;;17.16;100.00;100191.78;5047709;28;20116;-68
2022/10/01 09:34:12;;;;;;;15.07;12.75;;;;;;;17.18;100.00;100178.88;5050556;28;20041;-74
2022/10/01 09:37:03;;;;;;;14.77;11.95;;;;;;;17.14;100.00;100170.28;5058859;28;20020;-74
2022/10/01 09:39:37;;;;;;;12.00;10.70;;;;;;;17.22;100.00;100182.94;5060151;28;20039;-74
2022/10/01 09:42:03;;;;;;;12.10;10.55;;;;;;;17.23;100.00;100171.06;5066546;28;20035;-74
2022/10/01 09:44:31;;;;;;;13.60;10.32;;;;;;;17.25;100.00;100172.56;5057516;28;20318;-74
2022/10/01 09:46:57;;;;;;;11.18;9.90;;;;;;;17.34;100.00;100187.75;5059959;28;20111;-74
2022/10/01 09:49:33;;;;;;;13.88;10.43;;;;;;;17.37;100.00;100175.69;5061550;28;20103;-74
2022/10/01 09:52:32;;;;;;;10.80;9.68;;;;;;;17.39;100.00;100168.22;5060661;28;20058;-74
2022/10/01 09:54:57;;;;;;;11.32;9.05;;;;;;;17.40;100.00;100170.75;5054910;28;20017;-74
2022/10/01 09:57:37;;;;;;;13.20;8.80;;;;;;;17.42;100.00;100165.16;5066685;28;20031;-74
2022/10/01 10:00:09;;;;;;;11.65;8.95;;;;;;;17.43;100.00;100156.88;5061107;28;20020;-74
2022/10/01 10:02:45;;;;;;;11.05;9.05;;;;;;;17.42;100.00;100166.00;5057185;28;20026;-74
2022/10/01 10:05:19;;;;;;;11.10;9.63;;;;;;;17.42;100.00;100157.03;5063647;28;20017;-73
2022/10/01 10:07:50;;;;;;;13.33;10.00;;;;;;;17.50;100.00;100174.09;5066471;28;20476;-74
2022/10/01 10:10:18;;;;;;;12.15;9.75;;;;;;;17.48;100.00;100178.84;5061359;28;20028;-74
2022/10/01 10:12:44;;;;;;;12.80;9.20;;;;;;;17.52;100.00;100176.63;5058716;28;20394;-74
2022/10/01 10:15:18;;;;;;;9.02;7.57;;;;;;;17.47;100.00;100138.34;5057497;28;20063;-74
2022/10/01 10:17:48;;;;;;;10.65;8.55;;;;;;;17.54;100.00;100139.34;5059585;28;20021;-74
2022/10/01 10:20:49;;;;;;;10.13;8.77;;;;;;;17.56;100.00;100134.56;5060304;28;20116;-74
2022/10/01 10:23:17;;;;;;;11.90;9.07;;;;;;;17.54;100.00;100126.59;5061302;28;20033;-74
2022/10/01 10:26:03;;;;;;;11.07;8.55;;;;;;;17.59;100.00;100137.75;5058706;28;20021;-74
2022/10/01 10:28:45;;;;;;;13.25;8.73;;;;;;;17.61;100.00;100143.81;5061534;28;20044;-74
2022/10/01 10:31:39;;;;;;;13.55;8.45;;;;;;;17.64;100.00;100129.88;5056932;28;20032;-74
2022/10/01 10:34:12;;;;;;;11.65;8.15;;;;;;;17.66;100.00;100124.28;5057662;28;20037;-74
2022/10/01 10:36:40;;;;;;;13.30;8.25;;;;;;;17.71;100.00;100121.88;5061050;28;20123;-74
2022/10/01 10:39:19;;;;;;;10.30;6.43;;;;;;;17.86;100.00;100122.72;5058889;28;20028;-74
2022/10/01 10:41:47;;;;;;;9.93;7.28;;;;;;;17.89;100.00;100095.19;5055661;28;20491;-74
2022/10/01 10:44:20;;;;;;;9.25;6.85;;;;;;;18.03;100.00;100091.66;5057661;28;20021;-74
2022/10/01 10:46:47;;;;;;;9.95;6.70;;;;;;;18.20;100.00;100098.56;5060646;28;20047;-75
2022/10/01 10:49:17;;;;;;;8.88;6.55;;;;;;;18.30;100.00;100095.56;5061594;28;20418;-74
2022/10/01 10:51:53;;;;;;;7.88;6.03;;;;;;;18.39;100.00;100084.44;5061969;28;20117;-74
2022/10/01 10:54:36;;;;;;;7.85;6.30;;;;;;;18.49;100.00;100081.41;5065121;28;20099;-74
2022/10/01 10:57:26;;;;;;;7.30;5.65;;;;;;;18.55;100.00;100073.38;5059322;28;20550;-74
2022/10/01 10:59:57;;;;;;;8.68;6.53;;;;;;;18.60;100.00;100065.47;5058295;28;20074;-75
2022/10/01 11:02:28;;;;;;;10.15;6.55;;;;;;;18.54;100.00;100043.69;5064680;28;20043;-74
2022/10/01 11:04:56;;;;;;;8.77;6.20;;;;;;;18.63;100.00;100064.25;5058400;28;20024;-74
2022/10/01 11:07:24;;;;;;;10.35;5.78;;;;;;;18.63;100.00;100064.25;5059530;28;20115;-74
2022/10/01 11:10:22;;;;;;;6.43;5.13;;;;;;;18.61;100.00;100061.72;5055719;28;20939;-74
2022/10/01 11:13:27;;;;;;;8.07;5.82;;;;;;;18.63;100.00;100067.78;5060594;28;20031;-75
2022/10/01 11:16:11;;;;;;;6.22;5.10;;;;;;;18.66;100.00;100048.41;5040582;28;20120;-74
2022/10/01 11:18:47;;;;;;;7.45;4.00;;;;;;;18.70;100.00;100052.41;5052927;28;20419;-74
2022/10/01 11:21:49;;;;;;;6.65;4.13;;;;;;;18.69;100.00;100047.16;5054158;28;20340;-74
2022/10/01 11:24:31;;;;;;;7.40;4.22;;;;;;;18.71;100.00;100040.53;5061329;28;20598;-74
2022/10/01 11:27:15;;;;;;;5.85;4.43;;;;;;;18.71;100.00;100040.53;5051441;28;20024;-74
2022/10/01 11:30:00;;;;;;;6.40;3.50;;;;;;;18.71;100.00;100036.94;5060870;28;20028;-74
2022/10/01 11:32:34;;;;;;;6.43;4.07;;;;;;;18.72;100.00;100033.19;5058969;28;20328;-74